sensor_id;sensor_type;location;lat;lon;timestamp;pressure;altitude;pressure_sealevel;temperature;humidity
68628;BME280;55611;48.602;9.490;2023-09-19T00:00:11;96570;;;21.2;51
68628;BME280;55611;48.602;9.490;2023-09-19T00:02:42;96570;;;21.1;51
68628;BME280;55611;48.602;9.490;2023-09-19T00:05:12;96570;;;21.1;51.5
68628;BME280;55611;48.602;9.490;2023-09-19T00:07:43;96550;;;21.1;51
68628;BME280;55611;48.602;9.490;2023-09-19T00:10:13;96560;;;21.1;51
68628;BME280;55611;48.602;9.490;2023-09-19T00:12:44;96560;;;21;51.5
68628;BME280;55611;48.602;9.490;2023-09-19T00:15:14;96560;;;21.1;51.5
68628;BME280;55611;48.602;9.490;2023-09-19T00:17:45;96570;;;21.1;51.5
68628;BME280;55611;48.602;9.490;2023-09-19T00:20:15;96570;;;21;51.5
68628;BME280;55611;48.602;9.490;2023-09-19T00:22:46;96560;;;21;51.5
68628;BME280;55611;48.602;9.490;2023-09-19T00:25:16;96570;;;21;51.5
68628;BME280;55611;48.602;9.490;2023-09-19T00:27:47;96580;;;21;51.5
68628;BME280;55611;48.602;9.490;2023-09-19T00:30:18;96570;;;20.9;51.5
68628;BME280;55611;48.602;9.490;2023-09-19T00:32:48;96580;;;21;51.5
68628;BME280;55611;48.602;9.490;2023-09-19T00:35:18;96570;;;21.1;51.5
68628;BME280;55611;48.602;9.490;2023-09-19T00:37:49;96560;;;21.2;51.5
68628;BME280;55611;48.602;9.490;2023-09-19T00:40:20;96570;;;21.2;51.5
68628;BME280;55611;48.602;9.490;2023-09-19T00:42:50;96570;;;21.2;51.5
68628;BME280;55611;48.602;9.490;2023-09-19T00:47:51;96580;;;21.3;51.5
68628;BME280;55611;48.602;9.490;2023-09-19T00:50:22;96570;;;21.3;51.5
68628;BME280;55611;48.602;9.490;2023-09-19T00:52:54;96570;;;21.3;51.5
68628;BME280;55611;48.602;9.490;2023-09-19T00:55:23;96570;;;21.3;51.5
68628;BME280;55611;48.602;9.490;2023-09-19T00:57:55;96580;;;21.2;51.5
68628;BME280;55611;48.602;9.490;2023-09-19T01:00:24;96580;;;21.2;51.5
68628;BME280;55611;48.602;9.490;2023-09-19T01:02:54;96570;;;21.2;51.5
68628;BME280;55611;48.602;9.490;2023-09-19T01:05:25;96570;;;21.2;51.5
68628;BME280;55611;48.602;9.490;2023-09-19T01:07:55;96580;;;21.1;51.5
68628;BME280;55611;48.602;9.490;2023-09-19T01:10:26;96570;;;21.1;51.5
68628;BME280;55611;48.602;9.490;2023-09-19T01:13:29;96580;;;21;51.5
68628;BME280;55611;48.602;9.490;2023-09-19T01:15:28;96590;;;21;51.5
68628;BME280;55611;48.602;9.490;2023-09-19T01:18:00;96580;;;21;51.5
68628;BME280;55611;48.602;9.490;2023-09-19T01:23:05;96590;;;21.1;51.5
68628;BME280;55611;48.602;9.490;2023-09-19T01:28:19;96590;;;21.2;51.5
68628;BME280;55611;48.602;9.490;2023-09-19T01:30:32;96590;;;21.1;51.5
68628;BME280;55611;48.602;9.490;2023-09-19T01:33:00;96580;;;21.2;51.5
68628;BME280;55611;48.602;9.490;2023-09-19T01:35:31;96580;;;21.3;51
68628;BME280;55611;48.602;9.490;2023-09-19T01:38:01;96590;;;21.4;51
68628;BME280;55611;48.602;9.490;2023-09-19T01:40:32;96580;;;21.4;51
68628;BME280;55611;48.602;9.490;2023-09-19T01:43:08;96590;;;21.4;51
68628;BME280;55611;48.602;9.490;2023-09-19T01:45:37;96600;;;21.5;51
68628;BME280;55611;48.602;9.490;2023-09-19T01:48:06;96590;;;21.4;51
68628;BME280;55611;48.602;9.490;2023-09-19T01:50:36;96590;;;21.5;51
68628;BME280;55611;48.602;9.490;2023-09-19T01:53:26;96600;;;21.5;51
68628;BME280;55611;48.602;9.490;2023-09-19T01:55:37;96590;;;21.5;51
68628;BME280;55611;48.602;9.490;2023-09-19T01:58:14;96600;;;21.5;51
68628;BME280;55611;48.602;9.490;2023-09-19T02:00:36;96610;;;21.5;51
68628;BME280;55611;48.602;9.490;2023-09-19T02:03:06;96620;;;21.4;51.5
68628;BME280;55611;48.602;9.490;2023-09-19T02:05:37;96620;;;21.5;51.5
68628;BME280;55611;48.602;9.490;2023-09-19T02:08:08;96620;;;21.5;51.5
68628;BME280;55611;48.602;9.490;2023-09-19T02:10:38;96620;;;21.5;51.5
68628;BME280;55611;48.602;9.490;2023-09-19T02:13:09;96630;;;21.6;51.5
68628;BME280;55611;48.602;9.490;2023-09-19T02:18:10;96630;;;21.6;51.5
68628;BME280;55611;48.602;9.490;2023-09-19T02:20:40;96630;;;21.6;51.5
68628;BME280;55611;48.602;9.490;2023-09-19T02:23:11;96630;;;21.6;51.5
68628;BME280;55611;48.602;9.490;2023-09-19T02:25:41;96640;;;21.6;51.5
68628;BME280;55611;48.602;9.490;2023-09-19T02:28:12;96630;;;21.5;51.5
68628;BME280;55611;48.602;9.490;2023-09-19T02:30:42;96640;;;21.5;51.5
68628;BME280;55611;48.602;9.490;2023-09-19T02:33:13;96640;;;21.5;51.5
68628;BME280;55611;48.602;9.490;2023-09-19T02:35:43;96650;;;21.5;51.5
68628;BME280;55611;48.602;9.490;2023-09-19T02:38:14;96650;;;21.5;51.5
68628;BME280;55611;48.602;9.490;2023-09-19T02:40:44;96650;;;21.4;51.5
68628;BME280;55611;48.602;9.490;2023-09-19T02:43:15;96650;;;21.4;51.5
68628;BME280;55611;48.602;9.490;2023-09-19T02:45:45;96650;;;21.4;51.5
68628;BME280;55611;48.602;9.490;2023-09-19T02:48:16;96630;;;21.3;51.5
68628;BME280;55611;48.602;9.490;2023-09-19T02:50:49;96660;;;21.3;51.5
68628;BME280;55611;48.602;9.490;2023-09-19T02:53:17;96640;;;21.3;51.5
68628;BME280;55611;48.602;9.490;2023-09-19T02:55:47;96640;;;21.3;51.5
68628;BME280;55611;48.602;9.490;2023-09-19T02:58:18;96660;;;21.3;51.5
68628;BME280;55611;48.602;9.490;2023-09-19T03:00:48;96650;;;21.2;51
68628;BME280;55611;48.602;9.490;2023-09-19T03:03:19;96650;;;21.2;51
68628;BME280;55611;48.602;9.490;2023-09-19T03:05:49;96670;;;21.1;51
68628;BME280;55611;48.602;9.490;2023-09-19T03:08:20;96660;;;21.1;51.5
68628;BME280;55611;48.602;9.490;2023-09-19T03:10:50;96660;;;21.1;51.5
68628;BME280;55611;48.602;9.490;2023-09-19T03:13:21;96660;;;21.1;51.5
68628;BME280;55611;48.602;9.490;2023-09-19T03:15:53;96650;;;21;51.5
68628;BME280;55611;48.602;9.490;2023-09-19T03:18:22;96660;;;20.9;51.5
68628;BME280;55611;48.602;9.490;2023-09-19T03:20:53;96660;;;21;51.5
68628;BME280;55611;48.602;9.490;2023-09-19T03:23:23;96660;;;21;51.5
68628;BME280;55611;48.602;9.490;2023-09-19T03:25:54;96660;;;21;51.5
68628;BME280;55611;48.602;9.490;2023-09-19T03:28:24;96660;;;21.1;51.5
68628;BME280;55611;48.602;9.490;2023-09-19T03:30:58;96660;;;21.2;51.5
68628;BME280;55611;48.602;9.490;2023-09-19T03:33:25;96660;;;21.2;51.5
68628;BME280;55611;48.602;9.490;2023-09-19T03:35:56;96660;;;21.2;51
68628;BME280;55611;48.602;9.490;2023-09-19T03:38:26;96670;;;21.2;51
68628;BME280;55611;48.602;9.490;2023-09-19T03:40:57;96660;;;21.2;51
68628;BME280;55611;48.602;9.490;2023-09-19T03:43:27;96660;;;21.2;51
68628;BME280;55611;48.602;9.490;2023-09-19T03:46:00;96670;;;21.3;51.5
68628;BME280;55611;48.602;9.490;2023-09-19T03:48:28;96660;;;21.3;51.5
68628;BME280;55611;48.602;9.490;2023-09-19T03:50:59;96650;;;21.3;51.5
68628;BME280;55611;48.602;9.490;2023-09-19T03:53:29;96660;;;21.3;51.5
68628;BME280;55611;48.602;9.490;2023-09-19T03:56:00;96650;;;21.3;51.5
68628;BME280;55611;48.602;9.490;2023-09-19T03:58:30;96660;;;21.3;51.5
68628;BME280;55611;48.602;9.490;2023-09-19T04:01:01;96650;;;21.3;51.5
68628;BME280;55611;48.602;9.490;2023-09-19T04:03:34;96650;;;21.3;51.5
68628;BME280;55611;48.602;9.490;2023-09-19T04:06:02;96660;;;21.4;51.5
68628;BME280;55611;48.602;9.490;2023-09-19T04:08:32;96660;;;21.4;51.5
68628;BME280;55611;48.602;9.490;2023-09-19T04:11:03;96660;;;21.4;51.5
68628;BME280;55611;48.602;9.490;2023-09-19T04:13:33;96660;;;21.4;51.5
68628;BME280;55611;48.602;9.490;2023-09-19T04:16:04;96670;;;21.3;51.5
68628;BME280;55611;48.602;9.490;2023-09-19T04:18:34;96660;;;21.2;51.5
68628;BME280;55611;48.602;9.490;2023-09-19T04:21:05;96670;;;21.1;51
68628;BME280;55611;48.602;9.490;2023-09-19T04:23:35;96670;;;21;51.5
68628;BME280;55611;48.602;9.490;2023-09-19T04:26:06;96670;;;21;51.5
68628;BME280;55611;48.602;9.490;2023-09-19T04:28:36;96670;;;21;51.5
68628;BME280;55611;48.602;9.490;2023-09-19T04:31:07;96660;;;21;51.5
68628;BME280;55611;48.602;9.490;2023-09-19T04:33:37;96680;;;21;51.5
68628;BME280;55611;48.602;9.490;2023-09-19T04:36:08;96680;;;21;51.5
68628;BME280;55611;48.602;9.490;2023-09-19T04:38:38;96670;;;21;51.5
68628;BME280;55611;48.602;9.490;2023-09-19T04:41:09;96680;;;21;51.5
68628;BME280;55611;48.602;9.490;2023-09-19T04:43:39;96680;;;20.9;51.5
68628;BME280;55611;48.602;9.490;2023-09-19T04:46:10;96680;;;20.9;51.5
68628;BME280;55611;48.602;9.490;2023-09-19T04:48:41;96690;;;20.8;51.5
68628;BME280;55611;48.602;9.490;2023-09-19T04:51:11;96690;;;20.7;51.5
68628;BME280;55611;48.602;9.490;2023-09-19T04:53:42;96700;;;20.6;51.5
68628;BME280;55611;48.602;9.490;2023-09-19T04:56:12;96690;;;20.6;51.5
68628;BME280;55611;48.602;9.490;2023-09-19T04:58:43;96690;;;20.6;51.5
68628;BME280;55611;48.602;9.490;2023-09-19T05:01:13;96690;;;20.5;51.5
68628;BME280;55611;48.602;9.490;2023-09-19T05:03:44;96690;;;20.5;51.5
68628;BME280;55611;48.602;9.490;2023-09-19T05:06:14;96690;;;20.5;51.5
68628;BME280;55611;48.602;9.490;2023-09-19T05:08:45;96690;;;20.5;51.5
68628;BME280;55611;48.602;9.490;2023-09-19T05:11:15;96690;;;20.4;51.5
68628;BME280;55611;48.602;9.490;2023-09-19T05:13:46;96690;;;20.5;51.5
68628;BME280;55611;48.602;9.490;2023-09-19T05:16:16;96700;;;20.7;51.5
68628;BME280;55611;48.602;9.490;2023-09-19T05:18:47;96690;;;20.8;51.5
68628;BME280;55611;48.602;9.490;2023-09-19T05:21:17;96700;;;20.8;51.5
68628;BME280;55611;48.602;9.490;2023-09-19T05:23:48;96700;;;20.9;51.5
68628;BME280;55611;48.602;9.490;2023-09-19T05:26:18;96700;;;20.9;51.5
68628;BME280;55611;48.602;9.490;2023-09-19T05:28:49;96700;;;21;51.5
68628;BME280;55611;48.602;9.490;2023-09-19T05:31:19;96710;;;21.1;51.5
68628;BME280;55611;48.602;9.490;2023-09-19T05:33:50;96710;;;21.2;51.5
68628;BME280;55611;48.602;9.490;2023-09-19T05:36:20;96710;;;21.3;51.5
68628;BME280;55611;48.602;9.490;2023-09-19T05:38:51;96710;;;21.4;51.5
68628;BME280;55611;48.602;9.490;2023-09-19T05:41:21;96720;;;21.4;51.5
68628;BME280;55611;48.602;9.490;2023-09-19T05:43:52;96720;;;21.4;51.5
68628;BME280;55611;48.602;9.490;2023-09-19T05:46:22;96720;;;21.3;51.5
68628;BME280;55611;48.602;9.490;2023-09-19T05:48:53;96720;;;21.2;51.5
68628;BME280;55611;48.602;9.490;2023-09-19T05:51:23;96730;;;21.1;51.5
68628;BME280;55611;48.602;9.490;2023-09-19T05:53:54;96740;;;21.1;51.5
68628;BME280;55611;48.602;9.490;2023-09-19T05:56:24;96750;;;21.2;51.5
68628;BME280;55611;48.602;9.490;2023-09-19T05:58:55;96750;;;21.1;51.5
68628;BME280;55611;48.602;9.490;2023-09-19T06:01:25;96750;;;20.9;51.5
68628;BME280;55611;48.602;9.490;2023-09-19T06:03:56;96750;;;20.8;51.5
68628;BME280;55611;48.602;9.490;2023-09-19T06:06:26;96750;;;20.7;51.5
68628;BME280;55611;48.602;9.490;2023-09-19T06:08:57;96760;;;20.6;51.5
68628;BME280;55611;48.602;9.490;2023-09-19T06:11:27;96750;;;20.5;51.5
68628;BME280;55611;48.602;9.490;2023-09-19T06:13:58;96760;;;20.4;51.5
68628;BME280;55611;48.602;9.490;2023-09-19T06:16:29;96760;;;20.4;51.5
68628;BME280;55611;48.602;9.490;2023-09-19T06:18:59;96770;;;20.3;52
68628;BME280;55611;48.602;9.490;2023-09-19T06:21:30;96790;;;20.3;52
68628;BME280;55611;48.602;9.490;2023-09-19T06:24:00;96790;;;20.4;52
68628;BME280;55611;48.602;9.490;2023-09-19T06:26:31;96790;;;20.2;52
68628;BME280;55611;48.602;9.490;2023-09-19T06:29:01;96800;;;20.1;52
68628;BME280;55611;48.602;9.490;2023-09-19T06:31:32;96800;;;19.8;52
68628;BME280;55611;48.602;9.490;2023-09-19T06:34:02;96800;;;19.6;52.5
68628;BME280;55611;48.602;9.490;2023-09-19T06:36:33;96800;;;19.3;52.5
68628;BME280;55611;48.602;9.490;2023-09-19T06:39:03;96800;;;19.3;52.5
68628;BME280;55611;48.602;9.490;2023-09-19T06:41:34;96810;;;19.1;52.5
68628;BME280;55611;48.602;9.490;2023-09-19T06:44:04;96820;;;19;53
68628;BME280;55611;48.602;9.490;2023-09-19T06:46:35;96830;;;18.9;53
68628;BME280;55611;48.602;9.490;2023-09-19T06:49:05;96820;;;18.8;53
68628;BME280;55611;48.602;9.490;2023-09-19T06:51:36;96830;;;18.7;53
68628;BME280;55611;48.602;9.490;2023-09-19T06:54:06;96830;;;18.6;53.5
68628;BME280;55611;48.602;9.490;2023-09-19T06:56:37;96830;;;18.4;53.5
68628;BME280;55611;48.602;9.490;2023-09-19T06:59:07;96830;;;18.5;53.5
68628;BME280;55611;48.602;9.490;2023-09-19T07:01:38;96830;;;18.5;53.5
68628;BME280;55611;48.602;9.490;2023-09-19T07:04:08;96830;;;18.4;53.5
68628;BME280;55611;48.602;9.490;2023-09-19T07:06:39;96840;;;18.5;53.5
68628;BME280;55611;48.602;9.490;2023-09-19T07:09:09;96850;;;18.5;53.5
68628;BME280;55611;48.602;9.490;2023-09-19T07:11:40;96850;;;18.5;53.5
68628;BME280;55611;48.602;9.490;2023-09-19T07:14:10;96850;;;18.5;53.5
68628;BME280;55611;48.602;9.490;2023-09-19T07:16:41;96850;;;18.6;53.5
68628;BME280;55611;48.602;9.490;2023-09-19T07:19:12;96850;;;18.7;53.5
68628;BME280;55611;48.602;9.490;2023-09-19T07:21:42;96850;;;18.8;53.5
68628;BME280;55611;48.602;9.490;2023-09-19T07:24:13;96860;;;19;53.5
68628;BME280;55611;48.602;9.490;2023-09-19T07:26:45;96860;;;19.1;53.5
68628;BME280;55611;48.602;9.490;2023-09-19T07:29:13;96860;;;19.1;53.5
68628;BME280;55611;48.602;9.490;2023-09-19T07:31:44;96860;;;19.1;53.5
68628;BME280;55611;48.602;9.490;2023-09-19T07:34:15;96860;;;19.4;53
68628;BME280;55611;48.602;9.490;2023-09-19T07:36:45;96870;;;19.5;53
68628;BME280;55611;48.602;9.490;2023-09-19T07:39:16;96870;;;19.5;53
68628;BME280;55611;48.602;9.490;2023-09-19T07:41:46;96860;;;19.5;53
68628;BME280;55611;48.602;9.490;2023-09-19T07:44:17;96860;;;19.6;53
68628;BME280;55611;48.602;9.490;2023-09-19T07:46:47;96870;;;19.8;53
68628;BME280;55611;48.602;9.490;2023-09-19T07:49:18;96870;;;19.7;53
68628;BME280;55611;48.602;9.490;2023-09-19T07:51:48;96880;;;19.8;53
68628;BME280;55611;48.602;9.490;2023-09-19T07:54:19;96880;;;20;52.5
68628;BME280;55611;48.602;9.490;2023-09-19T07:56:49;96880;;;20.1;52.5
68628;BME280;55611;48.602;9.490;2023-09-19T07:59:20;96880;;;20.2;52.5
68628;BME280;55611;48.602;9.490;2023-09-19T08:01:50;96880;;;20.1;52.5
68628;BME280;55611;48.602;9.490;2023-09-19T08:06:51;96880;;;20.1;52.5
68628;BME280;55611;48.602;9.490;2023-09-19T08:09:22;96890;;;20.2;52.5
68628;BME280;55611;48.602;9.490;2023-09-19T08:11:52;96880;;;20.3;52.5
68628;BME280;55611;48.602;9.490;2023-09-19T08:14:23;96880;;;20.5;52.5
68628;BME280;55611;48.602;9.490;2023-09-19T08:16:56;96890;;;20.5;53
68628;BME280;55611;48.602;9.490;2023-09-19T08:19:24;96890;;;20.5;53
68628;BME280;55611;48.602;9.490;2023-09-19T08:21:55;96890;;;20.5;53
68628;BME280;55611;48.602;9.490;2023-09-19T08:24:25;96900;;;20.5;53
68628;BME280;55611;48.602;9.490;2023-09-19T08:26:56;96900;;;20.5;53
68628;BME280;55611;48.602;9.490;2023-09-19T08:29:26;96890;;;20.5;53
68628;BME280;55611;48.602;9.490;2023-09-19T08:31:57;96890;;;20.7;53
68628;BME280;55611;48.602;9.490;2023-09-19T08:34:27;96890;;;20.9;53.5
68628;BME280;55611;48.602;9.490;2023-09-19T08:36:57;96900;;;21.1;53.5
68628;BME280;55611;48.602;9.490;2023-09-19T08:39:28;96900;;;21.2;53.5
68628;BME280;55611;48.602;9.490;2023-09-19T08:41:59;96900;;;21.2;53.5
68628;BME280;55611;48.602;9.490;2023-09-19T08:44:29;96900;;;21.3;53.5
68628;BME280;55611;48.602;9.490;2023-09-19T08:47:01;96900;;;21.4;53.5
68628;BME280;55611;48.602;9.490;2023-09-19T08:49:35;96900;;;21.4;53.5
68628;BME280;55611;48.602;9.490;2023-09-19T08:52:01;96900;;;21.4;53.5
68628;BME280;55611;48.602;9.490;2023-09-19T08:54:33;96900;;;21.4;53.5
68628;BME280;55611;48.602;9.490;2023-09-19T08:57:03;96900;;;21.4;53.5
68628;BME280;55611;48.602;9.490;2023-09-19T08:59:32;96900;;;21.2;53.5
68628;BME280;55611;48.602;9.490;2023-09-19T09:02:03;96900;;;21;53.5
68628;BME280;55611;48.602;9.490;2023-09-19T09:07:04;96910;;;20.8;54
68628;BME280;55611;48.602;9.490;2023-09-19T09:09:34;96900;;;20.9;54
68628;BME280;55611;48.602;9.490;2023-09-19T09:12:05;96910;;;20.8;54
68628;BME280;55611;48.602;9.490;2023-09-19T09:14:35;96910;;;20.8;54
68628;BME280;55611;48.602;9.490;2023-09-19T09:17:06;96920;;;20.9;54
68628;BME280;55611;48.602;9.490;2023-09-19T09:19:36;96920;;;21.1;54
68628;BME280;55611;48.602;9.490;2023-09-19T09:22:08;96910;;;21.4;54
68628;BME280;55611;48.602;9.490;2023-09-19T09:24:38;96930;;;21.6;54
68628;BME280;55611;48.602;9.490;2023-09-19T09:27:08;96930;;;21.8;54
68628;BME280;55611;48.602;9.490;2023-09-19T09:29:42;96930;;;21.9;54
68628;BME280;55611;48.602;9.490;2023-09-19T09:32:16;96930;;;22;54
68628;BME280;55611;48.602;9.490;2023-09-19T09:34:39;96930;;;22;54
68628;BME280;55611;48.602;9.490;2023-09-19T09:37:14;96930;;;21.9;54
68628;BME280;55611;48.602;9.490;2023-09-19T09:39:40;96930;;;21.7;54
68628;BME280;55611;48.602;9.490;2023-09-19T09:42:15;96930;;;21.7;54
68628;BME280;55611;48.602;9.490;2023-09-19T09:44:41;96930;;;21.7;54
68628;BME280;55611;48.602;9.490;2023-09-19T09:47:12;96930;;;21.7;54
68628;BME280;55611;48.602;9.490;2023-09-19T09:49:42;96940;;;21.7;54
68628;BME280;55611;48.602;9.490;2023-09-19T09:52:13;96940;;;21.9;54
68628;BME280;55611;48.602;9.490;2023-09-19T09:54:59;96930;;;22;54
68628;BME280;55611;48.602;9.490;2023-09-19T09:57:14;96930;;;22.1;54
68628;BME280;55611;48.602;9.490;2023-09-19T09:59:45;96930;;;22;54
68628;BME280;55611;48.602;9.490;2023-09-19T10:02:16;96930;;;22;54
68628;BME280;55611;48.602;9.490;2023-09-19T10:04:45;96930;;;22.1;54
68628;BME280;55611;48.602;9.490;2023-09-19T10:07:24;96920;;;22.3;54
68628;BME280;55611;48.602;9.490;2023-09-19T10:09:47;96920;;;22.4;54.5
68628;BME280;55611;48.602;9.490;2023-09-19T10:12:17;96920;;;22.5;54.5
68628;BME280;55611;48.602;9.490;2023-09-19T10:14:47;96920;;;22.7;54.5
68628;BME280;55611;48.602;9.490;2023-09-19T10:17:18;96920;;;22.9;54.5
68628;BME280;55611;48.602;9.490;2023-09-19T10:19:54;96910;;;23.1;54
68628;BME280;55611;48.602;9.490;2023-09-19T10:22:19;96900;;;23.1;54
68628;BME280;55611;48.602;9.490;2023-09-19T10:24:50;96920;;;23;54
68628;BME280;55611;48.602;9.490;2023-09-19T10:27:20;96910;;;23;54
68628;BME280;55611;48.602;9.490;2023-09-19T10:29:51;96910;;;23;54
68628;BME280;55611;48.602;9.490;2023-09-19T10:32:22;96910;;;23;54.5
68628;BME280;55611;48.602;9.490;2023-09-19T10:34:52;96910;;;23;54
68628;BME280;55611;48.602;9.490;2023-09-19T10:37:22;96910;;;23.1;54
68628;BME280;55611;48.602;9.490;2023-09-19T10:39:53;96920;;;23.2;54
68628;BME280;55611;48.602;9.490;2023-09-19T10:42:23;96910;;;23.3;54
68628;BME280;55611;48.602;9.490;2023-09-19T10:44:54;96920;;;23.5;54
68628;BME280;55611;48.602;9.490;2023-09-19T10:47:24;96910;;;23.6;54
68628;BME280;55611;48.602;9.490;2023-09-19T10:49:55;96920;;;23.6;54
68628;BME280;55611;48.602;9.490;2023-09-19T10:52:25;96910;;;23.6;54
68628;BME280;55611;48.602;9.490;2023-09-19T10:54:56;96920;;;23.8;54
68628;BME280;55611;48.602;9.490;2023-09-19T10:57:26;96910;;;24;54
68628;BME280;55611;48.602;9.490;2023-09-19T11:00:01;96920;;;24;54
68628;BME280;55611;48.602;9.490;2023-09-19T11:02:27;96910;;;23.9;54
68628;BME280;55611;48.602;9.490;2023-09-19T11:05:10;96910;;;23.8;54
68628;BME280;55611;48.602;9.490;2023-09-19T11:07:28;96900;;;23.8;54
68628;BME280;55611;48.602;9.490;2023-09-19T11:09:59;96900;;;23.7;54
68628;BME280;55611;48.602;9.490;2023-09-19T11:12:47;96910;;;23.5;54
68628;BME280;55611;48.602;9.490;2023-09-19T11:15:00;96900;;;23.4;54.5
68628;BME280;55611;48.602;9.490;2023-09-19T11:17:32;96900;;;23.3;54.5
68628;BME280;55611;48.602;9.490;2023-09-19T11:23:23;96900;;;23.4;54.5
68628;BME280;55611;48.602;9.490;2023-09-19T11:25:39;96900;;;23.4;54.5
68628;BME280;55611;48.602;9.490;2023-09-19T11:27:32;96900;;;23.4;54.5
68628;BME280;55611;48.602;9.490;2023-09-19T11:30:35;96890;;;23.5;54.5
68628;BME280;55611;48.602;9.490;2023-09-19T11:33:37;96890;;;23.6;54.5
68628;BME280;55611;48.602;9.490;2023-09-19T11:35:06;96890;;;23.6;54.5
68628;BME280;55611;48.602;9.490;2023-09-19T11:38:06;96880;;;23.7;54.5
68628;BME280;55611;48.602;9.490;2023-09-19T11:40:06;96890;;;23.7;54.5
68628;BME280;55611;48.602;9.490;2023-09-19T11:42:43;96880;;;23.7;54.5
68628;BME280;55611;48.602;9.490;2023-09-19T11:45:06;96890;;;23.7;54.5
68628;BME280;55611;48.602;9.490;2023-09-19T11:47:37;96880;;;23.6;54.5
68628;BME280;55611;48.602;9.490;2023-09-19T11:50:07;96880;;;23.5;54.5
68628;BME280;55611;48.602;9.490;2023-09-19T11:52:38;96880;;;23.5;54.5
68628;BME280;55611;48.602;9.490;2023-09-19T11:55:08;96880;;;23.5;54.5
68628;BME280;55611;48.602;9.490;2023-09-19T11:57:39;96870;;;23.4;54.5
68628;BME280;55611;48.602;9.490;2023-09-19T12:00:16;96880;;;23.3;54.5
68628;BME280;55611;48.602;9.490;2023-09-19T12:02:40;96880;;;23.4;54.5
68628;BME280;55611;48.602;9.490;2023-09-19T12:05:10;96870;;;23.5;54.5
68628;BME280;55611;48.602;9.490;2023-09-19T12:07:42;96860;;;23.5;54.5
68628;BME280;55611;48.602;9.490;2023-09-19T12:10:11;96860;;;23.6;54.5
68628;BME280;55611;48.602;9.490;2023-09-19T12:12:47;96870;;;23.7;54.5
68628;BME280;55611;48.602;9.490;2023-09-19T12:15:12;96860;;;23.8;54.5
68628;BME280;55611;48.602;9.490;2023-09-19T12:17:43;96860;;;23.9;54.5
68628;BME280;55611;48.602;9.490;2023-09-19T12:20:13;96860;;;24.1;54.5
68628;BME280;55611;48.602;9.490;2023-09-19T12:22:44;96860;;;24.1;54.5
68628;BME280;55611;48.602;9.490;2023-09-19T12:25:15;96850;;;24.2;54.5
68628;BME280;55611;48.602;9.490;2023-09-19T12:27:46;96860;;;24.3;54.5
68628;BME280;55611;48.602;9.490;2023-09-19T12:30:16;96850;;;24.4;54.5
68628;BME280;55611;48.602;9.490;2023-09-19T12:32:46;96840;;;24.5;54
68628;BME280;55611;48.602;9.490;2023-09-19T12:35:32;96850;;;24.4;54
68628;BME280;55611;48.602;9.490;2023-09-19T12:37:54;96850;;;24.5;54
68628;BME280;55611;48.602;9.490;2023-09-19T12:40:17;96850;;;24.6;54
68628;BME280;55611;48.602;9.490;2023-09-19T12:42:49;96850;;;24.7;54
68628;BME280;55611;48.602;9.490;2023-09-19T12:45:18;96830;;;24.8;54
68628;BME280;55611;48.602;9.490;2023-09-19T12:50:20;96850;;;24.7;54
68628;BME280;55611;48.602;9.490;2023-09-19T12:52:50;96840;;;24.7;54
68628;BME280;55611;48.602;9.490;2023-09-19T12:55:22;96840;;;24.7;54
68628;BME280;55611;48.602;9.490;2023-09-19T12:57:55;96830;;;24.8;54
68628;BME280;55611;48.602;9.490;2023-09-19T13:00:21;96830;;;24.9;54
68628;BME280;55611;48.602;9.490;2023-09-19T13:03:25;96830;;;25;54
68628;BME280;55611;48.602;9.490;2023-09-19T13:05:46;96830;;;24.9;54
68628;BME280;55611;48.602;9.490;2023-09-19T13:07:53;96830;;;25;54
68628;BME280;55611;48.602;9.490;2023-09-19T13:10:24;96820;;;24.8;54
68628;BME280;55611;48.602;9.490;2023-09-19T13:12:54;96820;;;24.8;54.5
68628;BME280;55611;48.602;9.490;2023-09-19T13:15:25;96820;;;24.8;54.5
68628;BME280;55611;48.602;9.490;2023-09-19T13:17:55;96820;;;24.9;54
68628;BME280;55611;48.602;9.490;2023-09-19T13:20:26;96810;;;24.9;54
68628;BME280;55611;48.602;9.490;2023-09-19T13:22:56;96810;;;24.9;54
68628;BME280;55611;48.602;9.490;2023-09-19T13:25:27;96800;;;24.8;54
68628;BME280;55611;48.602;9.490;2023-09-19T13:27:57;96820;;;24.8;54
68628;BME280;55611;48.602;9.490;2023-09-19T13:30:28;96810;;;24.9;54
68628;BME280;55611;48.602;9.490;2023-09-19T13:33:06;96820;;;24.9;54
68628;BME280;55611;48.602;9.490;2023-09-19T13:35:29;96810;;;25;54
68628;BME280;55611;48.602;9.490;2023-09-19T13:37:59;96800;;;25.1;54
68628;BME280;55611;48.602;9.490;2023-09-19T13:40:30;96800;;;25.3;54
68628;BME280;55611;48.602;9.490;2023-09-19T13:43:01;96800;;;25.4;54
68628;BME280;55611;48.602;9.490;2023-09-19T13:45:31;96810;;;25.4;54
68628;BME280;55611;48.602;9.490;2023-09-19T13:48:01;96810;;;25.3;54
68628;BME280;55611;48.602;9.490;2023-09-19T13:53:02;96800;;;25.1;54
68628;BME280;55611;48.602;9.490;2023-09-19T13:55:33;96800;;;25.1;54
68628;BME280;55611;48.602;9.490;2023-09-19T13:58:03;96800;;;25.2;54
68628;BME280;55611;48.602;9.490;2023-09-19T14:00:34;96800;;;25.2;54
68628;BME280;55611;48.602;9.490;2023-09-19T14:03:04;96790;;;25.3;54
68628;BME280;55611;48.602;9.490;2023-09-19T14:05:35;96800;;;25.3;54
68628;BME280;55611;48.602;9.490;2023-09-19T14:08:06;96800;;;25.3;54
68628;BME280;55611;48.602;9.490;2023-09-19T14:10:36;96790;;;25.2;54
68628;BME280;55611;48.602;9.490;2023-09-19T14:13:06;96790;;;25.2;54
68628;BME280;55611;48.602;9.490;2023-09-19T14:15:37;96790;;;25.2;54
68628;BME280;55611;48.602;9.490;2023-09-19T14:18:07;96790;;;25.2;54
68628;BME280;55611;48.602;9.490;2023-09-19T14:20:38;96790;;;25.2;54
68628;BME280;55611;48.602;9.490;2023-09-19T14:25:39;96800;;;25.3;53.5
68628;BME280;55611;48.602;9.490;2023-09-19T14:28:10;96800;;;25.3;53.5
68628;BME280;55611;48.602;9.490;2023-09-19T14:30:40;96790;;;25.3;53.5
68628;BME280;55611;48.602;9.490;2023-09-19T14:33:11;96790;;;25.3;53.5
68628;BME280;55611;48.602;9.490;2023-09-19T14:35:41;96800;;;25.3;53.5
68628;BME280;55611;48.602;9.490;2023-09-19T14:38:12;96790;;;25.3;53.5
68628;BME280;55611;48.602;9.490;2023-09-19T14:40:42;96790;;;25.3;53.5
68628;BME280;55611;48.602;9.490;2023-09-19T14:43:13;96790;;;25.3;53.5
68628;BME280;55611;48.602;9.490;2023-09-19T14:45:43;96780;;;25.4;53.5
68628;BME280;55611;48.602;9.490;2023-09-19T14:48:14;96780;;;25.4;53.5
68628;BME280;55611;48.602;9.490;2023-09-19T14:50:44;96770;;;25.3;53.5